KMTP/MTP METAR and TAF weather

Enter ICAO airport designator
Station Type Date Time Source
KMTP METAR 2019/12/07 16:54 UTC NOAA

KMTP 071654Z AUTO 32012G20KT 02/M07 A3033 RMK AO1 SLP268 T00221067 $


Station Type Date Time Source
KMTP Decoded METAR 2019/12/07 16:54 UTC NOAA

MONTAUK AIRPORT, NY, United States (KMTP) 41-04N 071-55W 2M
Dec 07, 2019 - 11:54 AM EST / 2019.12.07 1654 UTC
Wind: from the NW (320 degrees) at 14 MPH (12 KT) gusting to 23 MPH (20 KT):0
Temperature: 36.0 F (2.2 C)
Dew Point: 19.9 F (-6.7 C)
Relative Humidity: 51%
Pressure (altimeter): 30.33 in. Hg (1027 hPa)
ob: KMTP 071654Z AUTO 32012G20KT 02/M07 A3033 RMK AO1 SLP268 T00221067
cycle: 17

Station Type Date Time Source
KMTP TAF UTC NOAA

Error!

Example: see airport list